createdAt,value
2019-04-05T00:00:17.769Z,83.45
2019-04-05T00:02:47.351Z,83.46
2019-04-05T00:05:17.254Z,83.50
2019-04-05T00:07:46.827Z,83.49
2019-04-05T00:10:16.844Z,83.47
2019-04-05T00:12:46.454Z,83.52
2019-04-05T00:15:16.320Z,83.53
2019-04-05T00:17:45.978Z,83.62
2019-04-05T00:20:16.695Z,83.65
2019-04-05T00:22:46.316Z,83.65
2019-04-05T00:25:15.877Z,83.61
2019-04-05T00:27:45.449Z,83.66
2019-04-05T00:30:16.368Z,83.66
2019-04-05T00:32:45.944Z,83.66
2019-04-05T00:35:15.529Z,83.66
2019-04-05T00:37:45.099Z,83.58
2019-04-05T00:40:15.390Z,83.55
2019-04-05T00:42:44.973Z,83.53
2019-04-05T00:45:27.149Z,83.42
2019-04-05T00:47:46.146Z,83.41
2019-04-05T00:50:15.945Z,83.41
2019-04-05T00:52:45.599Z,83.49
2019-04-05T00:55:15.184Z,83.54
2019-04-05T00:57:44.794Z,83.62
2019-04-05T01:00:14.690Z,83.74
2019-04-05T01:02:44.226Z,83.88
2019-04-05T01:05:13.966Z,83.84
2019-04-05T01:07:43.533Z,83.85
2019-04-05T01:10:13.579Z,83.87
2019-04-05T01:12:43.359Z,83.85
2019-04-05T01:15:14.525Z,83.85
2019-04-05T01:17:44.511Z,83.78
2019-04-05T01:20:14.232Z,83.75
2019-04-05T01:22:45.541Z,83.75
2019-04-05T01:25:15.330Z,83.86
2019-04-05T01:27:45.028Z,83.85
2019-04-05T01:30:16.567Z,83.83
2019-04-05T01:32:46.477Z,83.85
2019-04-05T01:35:17.393Z,83.83
2019-04-05T01:37:47.708Z,83.84
2019-04-05T01:40:17.783Z,83.89
2019-04-05T01:42:48.666Z,83.96
2019-04-05T01:45:18.233Z,84.00
2019-04-05T01:47:47.831Z,83.95
2019-04-05T01:50:17.700Z,83.89
2019-04-05T01:52:48.308Z,83.84
2019-04-05T01:55:17.959Z,83.93
2019-04-05T01:57:47.533Z,83.93
2019-04-05T02:00:17.994Z,83.93
2019-04-05T02:02:48.099Z,83.98
2019-04-05T02:05:17.908Z,84.04
2019-04-05T02:07:47.544Z,84.09
2019-04-05T02:10:17.187Z,84.13
2019-04-05T02:12:46.762Z,84.16
2019-04-05T02:15:30.836Z,84.20
2019-04-05T02:18:00.470Z,84.32
2019-04-05T02:20:30.620Z,84.47
2019-04-05T02:23:00.504Z,84.66
2019-04-05T02:25:30.267Z,84.72
2019-04-05T02:27:59.844Z,84.68
2019-04-05T02:30:29.580Z,84.58
2019-04-05T02:32:59.209Z,84.54
2019-04-05T02:35:29.133Z,84.38
2019-04-05T02:37:58.850Z,84.42
2019-04-05T02:40:29.271Z,84.39
2019-04-05T02:43:01.803Z,84.33
2019-04-05T02:45:33.476Z,84.39
2019-04-05T02:48:05.897Z,84.45
2019-04-05T02:50:40.049Z,84.48
2019-04-05T02:53:12.173Z,84.67
2019-04-05T02:55:43.828Z,84.82
2019-04-05T02:58:14.633Z,84.60
2019-04-05T03:00:45.191Z,84.61
2019-04-05T03:03:15.491Z,84.68
2019-04-05T03:05:47.147Z,84.71
2019-04-05T03:08:17.931Z,84.68
2019-04-05T03:11:12.908Z,84.62
2019-04-05T03:13:54.507Z,84.64
2019-04-05T03:16:40.382Z,84.60
2019-04-05T03:19:10.193Z,84.52
2019-04-05T03:21:44.633Z,84.60
2019-04-05T03:24:18.138Z,84.74
2019-04-05T03:26:52.405Z,84.82
2019-04-05T03:29:22.205Z,84.79
2019-04-05T03:31:52.932Z,84.69
2019-04-05T03:34:23.679Z,84.58
2019-04-05T03:36:53.734Z,84.68
2019-04-05T03:39:24.474Z,84.66
2019-04-05T03:41:54.967Z,84.62
2019-04-05T03:44:24.551Z,84.61
2019-04-05T03:46:57.494Z,84.51
2019-04-05T03:49:26.763Z,84.60
2019-04-05T03:51:56.644Z,84.61
2019-04-05T03:54:26.454Z,84.60
2019-04-05T03:56:56.280Z,84.55
2019-04-05T03:59:26.250Z,84.47
2019-04-05T04:01:56.024Z,84.60
2019-04-05T04:04:25.897Z,84.63
2019-04-05T04:06:55.991Z,84.66
2019-04-05T04:09:25.701Z,84.75
2019-04-05T04:11:55.505Z,84.78
2019-04-05T04:14:25.383Z,84.79
2019-04-05T04:17:11.022Z,84.77
2019-04-05T04:19:27.133Z,84.68
2019-04-05T04:22:17.694Z,84.60
2019-04-05T04:24:47.585Z,84.67
2019-04-05T04:27:17.727Z,84.64
2019-04-05T04:29:47.281Z,84.58
2019-04-05T04:32:17.548Z,84.50
2019-04-05T04:34:47.336Z,84.51
2019-04-05T04:37:17.202Z,84.57
2019-04-05T04:39:46.893Z,84.62
2019-04-05T04:42:16.919Z,84.68
2019-04-05T04:44:46.613Z,84.66
2019-04-05T04:47:26.206Z,84.70
2019-04-05T04:49:49.095Z,84.71
2019-04-05T04:52:18.891Z,84.71
2019-04-05T04:54:48.596Z,84.68
2019-04-05T04:57:18.495Z,84.70
2019-04-05T04:59:48.034Z,84.81
2019-04-05T05:02:18.048Z,84.89
2019-04-05T05:04:48.271Z,84.93
2019-04-05T05:07:18.142Z,85.14
2019-04-05T05:09:49.581Z,85.02
2019-04-05T05:12:19.223Z,84.96
2019-04-05T05:14:49.471Z,84.93
2019-04-05T05:17:19.510Z,84.93
2019-04-05T05:19:49.195Z,84.89
2019-04-05T05:22:18.970Z,84.95
2019-04-05T05:24:48.717Z,84.92
2019-04-05T05:27:18.718Z,84.96
2019-04-05T05:29:48.714Z,85.03
2019-04-05T05:32:18.614Z,85.09
2019-04-05T05:35:01.108Z,85.02
2019-04-05T05:37:20.820Z,84.89
2019-04-05T05:39:50.374Z,84.96
2019-04-05T05:42:20.187Z,84.96
2019-04-05T05:44:49.715Z,85.00
2019-04-05T05:47:19.245Z,85.14
2019-04-05T05:49:50.477Z,85.10
2019-04-05T05:52:21.057Z,85.30
2019-04-05T05:54:50.945Z,85.44
2019-04-05T05:57:20.470Z,85.35
2019-04-05T05:59:50.090Z,85.40
2019-04-05T06:02:19.642Z,85.51
2019-04-05T06:04:49.207Z,85.66
2019-04-05T06:07:20.218Z,85.62
2019-04-05T06:09:49.877Z,85.54
2019-04-05T06:12:19.460Z,85.47
2019-04-05T06:14:49.032Z,85.30
2019-04-05T06:17:18.632Z,85.36
2019-04-05T06:19:49.810Z,85.38
2019-04-05T06:22:19.366Z,85.25
2019-04-05T06:24:48.913Z,85.19
2019-04-05T06:27:18.482Z,85.20
2019-04-05T06:29:48.109Z,85.24
2019-04-05T06:32:17.714Z,85.33
2019-04-05T06:34:47.237Z,85.33
2019-04-05T06:37:16.778Z,85.35
2019-04-05T06:39:46.342Z,85.29
2019-04-05T06:42:15.902Z,85.24
2019-04-05T06:44:45.476Z,85.24
2019-04-05T06:47:15.148Z,85.21
2019-04-05T06:49:44.727Z,85.24
2019-04-05T06:52:14.301Z,84.96
2019-04-05T06:54:43.860Z,84.99
2019-04-05T06:57:13.415Z,85.02
2019-04-05T06:59:42.969Z,85.09
2019-04-05T07:02:12.486Z,85.11
2019-04-05T07:04:42.025Z,85.06
2019-04-05T07:07:12.091Z,84.92
2019-04-05T07:09:41.632Z,84.85
2019-04-05T07:12:11.163Z,84.72
2019-04-05T07:14:40.768Z,84.79
2019-04-05T07:17:10.357Z,84.67
2019-04-05T07:19:39.880Z,84.52
2019-04-05T07:22:09.445Z,84.73
2019-04-05T07:24:38.970Z,84.93
2019-04-05T07:27:08.534Z,84.90
2019-04-05T07:29:38.081Z,84.80
2019-04-05T07:32:07.604Z,84.76
2019-04-05T07:34:37.192Z,84.81
2019-04-05T07:37:06.710Z,84.56
2019-04-05T07:39:36.243Z,84.50
2019-04-05T07:42:05.945Z,84.75
2019-04-05T07:44:35.500Z,83.84
2019-04-05T07:47:05.048Z,83.57
2019-04-05T07:49:34.626Z,83.85
2019-04-05T07:52:04.157Z,83.63
2019-04-05T07:54:33.698Z,83.17
2019-04-05T07:57:03.353Z,83.25
2019-04-05T07:59:33.236Z,82.90
2019-04-05T08:02:02.740Z,82.96
2019-04-05T08:04:32.283Z,82.90
2019-04-05T08:07:04.360Z,82.97
2019-04-05T08:09:37.040Z,82.87
2019-04-05T08:12:08.026Z,82.88
2019-04-05T08:14:39.881Z,82.69
2019-04-05T08:17:09.702Z,82.62
2019-04-05T08:19:39.258Z,82.41
2019-04-05T08:22:08.770Z,83.05
2019-04-05T08:24:38.354Z,83.01
2019-04-05T08:27:07.884Z,82.69
2019-04-05T08:29:37.428Z,82.60
2019-04-05T08:32:14.506Z,82.20
2019-04-05T08:34:38.337Z,82.20
2019-04-05T08:37:07.906Z,82.20
2019-04-05T08:39:37.460Z,81.95
2019-04-05T08:42:07.004Z,82.06
2019-04-05T08:44:36.554Z,82.15
2019-04-05T08:47:06.159Z,82.21
2019-04-05T08:49:35.785Z,82.36
2019-04-05T08:52:05.400Z,82.32
2019-04-05T08:54:36.756Z,82.65
2019-04-05T08:57:06.525Z,82.67
2019-04-05T08:59:36.086Z,82.52
2019-04-05T09:02:05.833Z,82.37
2019-04-05T09:04:35.382Z,82.25
2019-04-05T09:07:05.010Z,81.94
2019-04-05T09:09:34.567Z,81.73
2019-04-05T09:12:04.209Z,81.67
2019-04-05T09:14:33.755Z,81.03
2019-04-05T09:17:03.385Z,80.84
2019-04-05T09:19:33.179Z,80.70
2019-04-05T09:22:02.726Z,80.62
2019-04-05T09:24:32.257Z,80.85
2019-04-05T09:27:01.798Z,80.95
2019-04-05T09:29:31.362Z,80.57
2019-04-05T09:32:01.344Z,80.34
2019-04-05T09:34:30.880Z,80.28
2019-04-05T09:37:00.453Z,80.16
2019-04-05T09:39:30.003Z,79.81
2019-04-05T09:41:59.561Z,79.49
2019-04-05T09:44:29.175Z,79.76
2019-04-05T09:46:58.717Z,79.15
2019-04-05T09:49:36.668Z,79.17
2019-04-05T09:51:59.841Z,79.25
2019-04-05T09:54:29.376Z,79.56
2019-04-05T09:56:58.912Z,79.69
2019-04-05T09:59:28.486Z,79.65
2019-04-05T10:01:58.040Z,79.25
2019-04-05T10:04:27.578Z,79.43
2019-04-05T10:06:57.201Z,79.62
2019-04-05T10:09:26.751Z,79.86
2019-04-05T10:11:56.292Z,79.43
2019-04-05T10:14:25.833Z,79.53
2019-04-05T10:16:55.446Z,79.27
2019-04-05T10:19:24.993Z,79.20
2019-04-05T10:21:54.569Z,79.15
2019-04-05T10:24:24.140Z,79.06
2019-04-05T10:26:53.746Z,78.30
2019-04-05T10:29:23.323Z,78.24
2019-04-05T10:31:52.913Z,78.36
2019-04-05T10:34:22.458Z,78.46
2019-04-05T10:36:52.013Z,78.50
2019-04-05T10:39:21.605Z,78.20
2019-04-05T10:42:02.654Z,78.23
2019-04-05T10:44:22.674Z,78.00
2019-04-05T10:46:52.335Z,78.24
2019-04-05T10:49:21.893Z,77.78
2019-04-05T10:51:51.528Z,77.75
2019-04-05T10:54:21.107Z,77.63
2019-04-05T10:56:50.765Z,77.78
2019-04-05T10:59:23.989Z,77.73
2019-04-05T11:01:53.536Z,78.06
2019-04-05T11:04:23.080Z,77.61
2019-04-05T11:06:52.631Z,77.42
2019-04-05T11:09:22.168Z,77.59
2019-04-05T11:11:51.777Z,77.85
2019-04-05T11:14:21.394Z,77.17
2019-04-05T11:16:58.299Z,77.11
2019-04-05T11:19:22.221Z,76.88
2019-04-05T11:21:52.430Z,76.96
2019-04-05T11:24:22.439Z,76.56
2019-04-05T11:26:52.083Z,76.87
2019-04-05T11:29:21.638Z,76.89
2019-04-05T11:31:56.811Z,76.57
2019-04-05T11:34:22.521Z,75.71
2019-04-05T11:36:52.771Z,76.17
2019-04-05T11:39:22.791Z,76.25
2019-04-05T11:41:54.090Z,76.67
2019-04-05T11:44:25.705Z,77.13
2019-04-05T11:46:56.652Z,76.93
2019-04-05T11:49:26.366Z,76.48
2019-04-05T11:51:56.230Z,76.18
2019-04-05T11:54:25.759Z,76.20
2019-04-05T11:56:55.303Z,76.14
2019-04-05T11:59:25.207Z,76.03
2019-04-05T12:01:58.821Z,76.12
2019-04-05T12:04:28.356Z,76.15
2019-04-05T12:06:57.906Z,76.04
2019-04-05T12:09:27.435Z,75.25
2019-04-05T12:11:56.978Z,75.55
2019-04-05T12:14:30.526Z,75.53
2019-04-05T12:16:57.945Z,75.67
2019-04-05T12:19:27.518Z,75.64
2019-04-05T12:21:57.116Z,75.26
2019-04-05T12:24:26.661Z,75.48
2019-04-05T12:26:56.299Z,75.64
2019-04-05T12:29:25.828Z,75.64
2019-04-05T12:31:56.214Z,75.44
2019-04-05T12:34:28.504Z,75.47
2019-04-05T12:36:57.075Z,75.22
2019-04-05T12:39:26.600Z,75.13
2019-04-05T12:41:56.292Z,74.62
2019-04-05T12:44:25.848Z,75.27
2019-04-05T12:46:55.508Z,75.45
2019-04-05T12:49:25.044Z,75.76
2019-04-05T12:51:54.864Z,75.95
2019-04-05T12:54:24.684Z,75.80
2019-04-05T12:56:56.309Z,75.96
2019-04-05T12:59:26.007Z,76.07
2019-04-05T13:01:55.501Z,76.24
2019-04-05T13:04:25.414Z,75.82
2019-04-05T13:06:55.007Z,76.15
2019-04-05T13:09:24.838Z,76.58
2019-04-05T13:11:57.318Z,76.43
2019-04-05T13:14:26.945Z,76.44
2019-04-05T13:16:56.757Z,75.93
2019-04-05T13:19:26.310Z,76.13
2019-04-05T13:21:55.875Z,76.09
2019-04-05T13:24:25.418Z,76.31
2019-04-05T13:26:55.368Z,76.51
2019-04-05T13:29:24.895Z,76.37
2019-04-05T13:31:54.431Z,76.18
2019-04-05T13:34:25.874Z,76.28
2019-04-05T13:36:55.477Z,76.72
2019-04-05T13:39:25.053Z,76.49
2019-04-05T13:41:54.678Z,76.39
2019-04-05T13:44:24.257Z,76.67
2019-04-05T13:46:53.852Z,76.75
2019-04-05T13:49:23.787Z,76.58
2019-04-05T13:51:53.315Z,76.84
2019-04-05T13:54:22.899Z,77.17
2019-04-05T13:56:52.499Z,77.09
2019-04-05T13:59:22.111Z,77.24
2019-04-05T14:01:51.684Z,77.34
2019-04-05T14:04:21.980Z,77.62
2019-04-05T14:06:53.631Z,78.02
2019-04-05T14:09:22.998Z,78.03
2019-04-05T14:11:52.546Z,78.03
2019-04-05T14:14:22.140Z,78.11
2019-04-05T14:16:53.950Z,78.26
2019-04-05T14:19:22.990Z,78.39
2019-04-05T14:21:53.686Z,78.25
2019-04-05T14:24:23.904Z,78.64
2019-04-05T14:26:53.544Z,78.26
2019-04-05T14:29:23.166Z,78.09
2019-04-05T14:31:52.712Z,78.29
2019-04-05T14:34:23.704Z,78.42
2019-04-05T14:36:53.550Z,78.57
2019-04-05T14:39:23.255Z,78.65
2019-04-05T14:41:52.831Z,78.63
2019-04-05T14:44:22.545Z,78.61
2019-04-05T14:46:52.095Z,78.91
2019-04-05T14:49:21.729Z,78.93
2019-04-05T14:51:53.889Z,79.04
2019-04-05T14:54:22.606Z,79.00
2019-04-05T14:56:52.129Z,79.16
2019-04-05T14:59:22.428Z,79.19
2019-04-05T15:01:51.953Z,79.22
2019-04-05T15:04:21.513Z,79.43
2019-04-05T15:06:51.742Z,79.31
2019-04-05T15:09:24.816Z,79.40
2019-04-05T15:11:52.601Z,79.81
2019-04-05T15:14:22.143Z,79.81
2019-04-05T15:16:51.789Z,79.91
2019-04-05T15:19:21.442Z,80.18
2019-04-05T15:21:51.000Z,80.12
2019-04-05T15:24:20.537Z,80.07
2019-04-05T15:26:51.507Z,80.52
2019-04-05T15:29:21.395Z,80.52
2019-04-05T15:31:50.944Z,80.67
2019-04-05T15:34:20.464Z,80.70
2019-04-05T15:36:50.035Z,80.81
2019-04-05T15:39:19.833Z,80.86
2019-04-05T15:41:49.393Z,81.13
2019-04-05T15:44:21.271Z,81.33
2019-04-05T15:46:51.832Z,81.55
2019-04-05T15:49:21.655Z,81.61
2019-04-05T15:51:54.377Z,81.77
2019-04-05T15:54:23.104Z,81.67
2019-04-05T15:56:52.661Z,81.71
2019-04-05T15:59:22.460Z,81.73
2019-04-05T16:01:52.023Z,81.86
2019-04-05T16:04:22.240Z,81.65
2019-04-05T16:06:51.802Z,81.73
2019-04-05T16:09:22.609Z,81.75
2019-04-05T16:11:52.524Z,81.84
2019-04-05T16:14:22.097Z,82.11
2019-04-05T16:16:56.450Z,81.96
2019-04-05T16:19:25.980Z,81.68
2019-04-05T16:21:55.535Z,81.74
2019-04-05T16:24:25.950Z,81.83
2019-04-05T16:26:55.537Z,81.98
2019-04-05T16:29:25.987Z,81.83
2019-04-05T16:31:55.863Z,81.81
2019-04-05T16:34:25.437Z,81.76
2019-04-05T16:36:54.983Z,81.83
2019-04-05T16:39:25.113Z,82.07
2019-04-05T16:41:54.832Z,81.83
2019-04-05T16:44:24.405Z,82.04
2019-04-05T16:46:54.506Z,82.12
2019-04-05T16:49:24.312Z,82.20
2019-04-05T16:51:53.867Z,82.13
2019-04-05T16:54:23.394Z,82.20
2019-04-05T16:56:53.129Z,82.63
2019-04-05T16:59:22.747Z,82.65
2019-04-05T17:01:52.284Z,82.52
2019-04-05T17:04:21.812Z,82.60
2019-04-05T17:06:51.351Z,82.42
2019-04-05T17:09:20.913Z,82.67
2019-04-05T17:11:50.573Z,82.89
2019-04-05T17:14:23.087Z,83.07
2019-04-05T17:16:51.395Z,82.99
2019-04-05T17:19:20.957Z,82.91
2019-04-05T17:21:50.611Z,82.88
2019-04-05T17:24:20.141Z,82.91
2019-04-05T17:26:49.691Z,83.06
2019-04-05T17:29:19.247Z,82.97
2019-04-05T17:31:48.899Z,83.09
2019-04-05T17:34:18.447Z,83.22
2019-04-05T17:36:48.166Z,83.46
2019-04-05T17:39:17.742Z,83.44
2019-04-05T17:41:47.387Z,83.65
2019-04-05T17:44:16.943Z,83.75
2019-04-05T17:46:46.560Z,84.00
2019-04-05T17:49:16.130Z,84.08
2019-04-05T17:51:46.644Z,84.29
2019-04-05T17:54:16.160Z,84.73
2019-04-05T17:56:46.271Z,84.87
2019-04-05T17:59:16.557Z,85.12
2019-04-05T18:01:46.308Z,85.34
2019-04-05T18:04:15.829Z,85.58
2019-04-05T18:06:45.385Z,85.74
2019-04-05T18:09:14.996Z,85.94
2019-04-05T18:11:44.655Z,86.16
2019-04-05T18:14:14.177Z,86.23
2019-04-05T18:16:43.982Z,86.57
2019-04-05T18:19:13.833Z,86.67
2019-04-05T18:21:43.386Z,86.63
2019-04-05T18:24:12.928Z,86.87
2019-04-05T18:26:42.751Z,86.94
2019-04-05T18:29:12.372Z,86.81
2019-04-05T18:31:41.906Z,86.75
2019-04-05T18:34:11.628Z,86.63
2019-04-05T18:36:41.201Z,86.49
2019-04-05T18:39:11.360Z,86.62
2019-04-05T18:41:43.641Z,86.58
2019-04-05T18:44:13.218Z,86.57
2019-04-05T18:46:42.787Z,86.59
2019-04-05T18:49:13.303Z,86.63
2019-04-05T18:51:43.250Z,86.56
2019-04-05T18:54:12.788Z,86.54
2019-04-05T18:56:42.329Z,86.42
2019-04-05T18:59:11.894Z,86.22
2019-04-05T19:01:41.444Z,86.07
2019-04-05T19:04:11.281Z,85.98
2019-04-05T19:06:40.968Z,85.79
2019-04-05T19:09:12.091Z,85.33
2019-04-05T19:11:42.024Z,85.36
2019-04-05T19:14:11.807Z,85.20
2019-04-05T19:16:41.351Z,85.12
2019-04-05T19:19:10.911Z,84.95
2019-04-05T19:21:40.477Z,84.77
2019-04-05T19:24:10.090Z,84.54
2019-04-05T19:26:39.790Z,84.51
2019-04-05T19:29:09.542Z,84.46
2019-04-05T19:49:20.135Z,84.73
2019-04-05T19:51:50.006Z,85.02
2019-04-05T19:54:20.136Z,85.03
2019-04-05T19:56:50.064Z,84.97
2019-04-05T19:59:19.739Z,84.76
2019-04-05T20:01:49.268Z,84.89
2019-04-05T20:04:19.521Z,84.95
2019-04-05T20:06:58.148Z,84.97
2019-04-05T20:09:21.592Z,84.94
2019-04-05T20:11:51.640Z,84.85
2019-04-05T20:14:21.663Z,84.97
2019-04-05T20:16:53.960Z,85.04
2019-04-05T20:19:23.817Z,85.01
2019-04-05T20:21:53.891Z,84.93
2019-04-05T20:24:23.925Z,85.03
2019-04-05T20:26:54.111Z,85.12
2019-04-05T20:29:24.075Z,85.35
2019-04-05T20:31:54.813Z,85.32
2019-04-05T20:34:24.791Z,85.28
2019-04-05T20:36:54.724Z,85.35
2019-04-05T20:39:25.110Z,85.22
2019-04-05T20:41:55.002Z,85.31
2019-04-05T20:44:24.845Z,85.38
2019-04-05T20:46:54.749Z,85.69
2019-04-05T20:49:24.524Z,85.58
2019-04-05T20:51:54.535Z,85.62
2019-04-05T20:54:25.079Z,85.67
2019-04-05T20:56:54.883Z,85.72
2019-04-05T20:59:24.858Z,85.64
2019-04-05T21:01:55.282Z,85.68
2019-04-05T21:04:25.462Z,85.61
2019-04-05T21:06:55.657Z,85.63
2019-04-05T21:09:25.571Z,85.59
2019-04-05T21:11:55.417Z,85.59
2019-04-05T21:14:26.346Z,85.43
2019-04-05T21:16:56.381Z,85.43
2019-04-05T21:19:26.637Z,85.42
2019-04-05T21:21:56.497Z,85.53
2019-04-05T21:24:35.777Z,85.50
2019-04-05T21:26:58.526Z,85.40
2019-04-05T21:29:28.496Z,85.30
2019-04-05T21:31:58.814Z,85.18
2019-04-05T21:34:28.805Z,85.02
2019-04-05T21:36:59.029Z,84.81
2019-04-05T21:39:28.952Z,84.98
2019-04-05T21:41:59.021Z,85.19
2019-04-05T21:44:29.449Z,85.42
2019-04-05T21:46:59.642Z,85.43
2019-04-05T21:49:29.766Z,85.45
2019-04-05T21:52:00.138Z,85.57
2019-04-05T21:54:30.435Z,85.60
2019-04-05T21:57:00.379Z,85.62
2019-04-05T21:59:30.291Z,85.67
2019-04-05T22:02:02.293Z,85.98
2019-04-05T22:04:31.724Z,85.88
2019-04-05T22:07:05.611Z,85.91
2019-04-05T22:09:35.761Z,86.02
2019-04-05T22:12:09.447Z,86.00
2019-04-05T22:14:38.857Z,85.89
2019-04-05T22:17:09.049Z,86.02
2019-04-05T22:19:39.259Z,86.17
2019-04-05T22:22:10.583Z,86.17
2019-04-05T22:24:42.130Z,86.18
2019-04-05T22:27:12.155Z,86.26
2019-04-05T22:29:42.472Z,86.36
2019-04-05T22:32:12.530Z,86.39
2019-04-05T22:34:42.604Z,86.29
2019-04-05T22:37:12.727Z,86.23
2019-04-05T22:39:45.498Z,86.32
2019-04-05T22:42:16.154Z,86.26
2019-04-05T22:44:45.987Z,86.14
2019-04-05T22:47:16.461Z,86.09
2019-04-05T22:49:46.857Z,86.22
2019-04-05T22:52:17.611Z,86.27
2019-04-05T22:54:48.748Z,86.34
2019-04-05T22:57:20.629Z,86.23
2019-04-05T22:59:50.672Z,86.29
2019-04-05T23:02:21.780Z,86.37
2019-04-05T23:04:51.860Z,86.29
2019-04-05T23:07:22.044Z,86.35
2019-04-05T23:09:53.153Z,86.34
2019-04-05T23:12:23.639Z,86.45
2019-04-05T23:14:53.514Z,86.56
2019-04-05T23:17:23.180Z,86.66
2019-04-05T23:19:52.853Z,86.75
2019-04-05T23:22:22.842Z,86.96
2019-04-05T23:24:52.630Z,87.06
2019-04-05T23:27:22.772Z,86.96
2019-04-05T23:29:53.190Z,87.17
2019-04-05T23:32:23.329Z,86.95
2019-04-05T23:34:53.559Z,87.12
2019-04-05T23:37:23.794Z,87.21
2019-04-05T23:39:53.876Z,87.34
2019-04-05T23:42:23.992Z,87.45
2019-04-05T23:44:55.469Z,87.29
2019-04-05T23:47:25.618Z,87.31
2019-04-05T23:49:55.823Z,87.28
2019-04-05T23:52:26.048Z,87.41
2019-04-05T23:54:56.378Z,87.40
2019-04-05T23:57:26.568Z,87.54
2019-04-05T23:59:56.120Z,87.53
